createdAt,value
2022-11-02T05:00:38.746Z,75.27
2022-11-02T05:03:12.306Z,75.25
2022-11-02T05:05:43.070Z,75.27
2022-11-02T05:08:12.486Z,75.18
2022-11-02T05:10:41.704Z,75.26
2022-11-02T05:13:11.993Z,75.48
2022-11-02T05:15:41.784Z,75.19
2022-11-02T05:18:16.143Z,75.35
2022-11-02T05:20:59.794Z,75.25
2022-11-02T05:23:30.542Z,75.07
2022-11-02T05:26:03.842Z,75.27
2022-11-02T05:28:34.581Z,75.09
2022-11-02T05:31:05.893Z,75.29
2022-11-02T05:33:36.680Z,75.27
2022-11-02T05:36:13.271Z,75.23
2022-11-02T05:38:44.209Z,75.06
2022-11-02T05:41:14.507Z,75.11
2022-11-02T05:43:43.939Z,74.93
2022-11-02T05:46:17.192Z,75.19
2022-11-02T05:48:46.488Z,75.24
2022-11-02T05:51:15.704Z,75.15
2022-11-02T05:53:44.758Z,75.17
2022-11-02T05:56:14.847Z,74.80
2022-11-02T05:58:43.260Z,75.01
2022-11-02T06:01:12.263Z,75.06
2022-11-02T06:03:41.372Z,75.04
2022-11-02T06:06:12.744Z,75.25
2022-11-02T06:08:41.780Z,75.05
2022-11-02T06:11:15.257Z,75.17
2022-11-02T06:13:44.700Z,75.05
2022-11-02T06:16:21.478Z,75.27
2022-11-02T06:18:52.705Z,75.03
2022-11-02T06:21:22.229Z,75.25
2022-11-02T06:23:51.100Z,75.32
2022-11-02T06:26:20.076Z,75.08
2022-11-02T06:28:49.214Z,75.25
2022-11-02T06:31:18.187Z,75.12
2022-11-02T06:33:47.334Z,75.09
2022-11-02T06:36:16.348Z,74.94
2022-11-02T06:38:46.451Z,74.95
2022-11-02T06:41:15.631Z,75.25
2022-11-02T06:43:44.658Z,75.10
2022-11-02T06:46:13.650Z,75.08
2022-11-02T06:48:42.343Z,74.97
2022-11-02T06:51:10.904Z,75.02
2022-11-02T06:53:39.255Z,75.11
2022-11-02T06:56:08.254Z,75.20
2022-11-02T06:58:37.277Z,75.09
2022-11-02T07:01:07.756Z,75.11
2022-11-02T07:03:36.973Z,75.14
2022-11-02T07:06:11.134Z,74.98
2022-11-02T07:08:43.474Z,74.98
2022-11-02T07:11:19.067Z,74.90
2022-11-02T07:13:48.158Z,74.90
2022-11-02T07:16:17.354Z,75.03
2022-11-02T07:18:46.207Z,74.86
2022-11-02T07:21:15.559Z,74.97
2022-11-02T07:23:44.509Z,74.97
2022-11-02T07:26:13.222Z,74.92
2022-11-02T07:28:42.385Z,74.75
2022-11-02T07:31:11.067Z,74.71
2022-11-02T07:33:39.553Z,74.83
2022-11-02T07:36:09.031Z,74.79
2022-11-02T07:38:38.186Z,74.92
2022-11-02T07:41:07.571Z,74.89
2022-11-02T07:43:38.594Z,74.84
2022-11-02T07:46:29.112Z,74.78
2022-11-02T07:48:58.171Z,74.68
2022-11-02T07:51:27.453Z,74.59
2022-11-02T07:53:55.784Z,74.75
2022-11-02T07:56:24.237Z,74.58
2022-11-02T07:58:53.328Z,74.49
2022-11-02T08:01:22.134Z,74.73
2022-11-02T08:03:51.856Z,74.53
2022-11-02T08:06:20.976Z,74.58
2022-11-02T08:08:50.099Z,74.52
2022-11-02T08:11:38.957Z,74.39
2022-11-02T08:14:08.548Z,74.46
2022-11-02T08:16:37.246Z,74.62
2022-11-02T08:19:05.914Z,74.43
2022-11-02T08:21:34.831Z,74.32
2022-11-02T08:24:03.157Z,74.12
2022-11-02T08:26:52.348Z,74.42
2022-11-02T08:29:41.789Z,74.28
2022-11-02T08:32:27.973Z,74.42
2022-11-02T08:35:15.334Z,74.29
2022-11-02T08:38:02.678Z,74.35
2022-11-02T08:40:50.431Z,74.25
2022-11-02T08:43:36.929Z,74.26
2022-11-02T08:46:23.942Z,74.37
2022-11-02T08:49:10.594Z,74.42
2022-11-02T08:51:57.338Z,74.21
2022-11-02T08:54:44.488Z,74.14
2022-11-02T08:57:30.853Z,74.20
2022-11-02T09:00:19.045Z,74.20
2022-11-02T09:03:09.296Z,74.25
2022-11-02T09:06:01.126Z,74.04
2022-11-02T09:08:47.551Z,74.13
2022-11-02T09:11:34.039Z,74.13
2022-11-02T09:14:19.971Z,73.96
2022-11-02T09:17:06.297Z,73.88
2022-11-02T09:19:52.087Z,73.88
2022-11-02T09:22:37.915Z,73.95
2022-11-02T09:25:24.322Z,73.82
2022-11-02T09:28:11.196Z,73.66
2022-11-02T09:30:58.307Z,73.73
2022-11-02T09:33:44.097Z,73.90
2022-11-02T09:36:30.809Z,73.87
2022-11-02T09:39:19.214Z,73.84
2022-11-02T09:42:19.166Z,73.97
2022-11-02T09:45:08.421Z,73.81
2022-11-02T09:48:22.028Z,73.80
2022-11-02T09:51:22.332Z,73.97
2022-11-02T09:54:13.259Z,73.82
2022-11-02T09:57:07.032Z,73.94
2022-11-02T09:59:53.662Z,73.96
2022-11-02T10:02:58.459Z,73.90
2022-11-02T10:05:55.400Z,73.94
2022-11-02T10:08:41.476Z,74.02
2022-11-02T10:11:41.762Z,73.93
2022-11-02T10:14:53.653Z,73.89
2022-11-02T10:17:41.916Z,73.99
2022-11-02T10:20:37.875Z,73.95
2022-11-02T10:23:48.308Z,73.82
2022-11-02T10:26:38.010Z,73.93
2022-11-02T10:29:45.763Z,73.96
2022-11-02T10:32:36.025Z,73.77
2022-11-02T10:39:00.820Z,73.76
2022-11-02T10:42:11.637Z,73.88
2022-11-02T10:45:09.405Z,73.97
2022-11-02T10:48:31.158Z,73.77
2022-11-02T10:51:18.334Z,73.83
2022-11-02T10:54:12.469Z,73.89
2022-11-02T10:56:59.312Z,73.82
2022-11-02T10:59:46.213Z,73.83
2022-11-02T11:02:32.683Z,73.87
2022-11-02T11:05:20.301Z,73.76
2022-11-02T11:08:07.693Z,73.77
2022-11-02T11:10:54.898Z,73.70
2022-11-02T11:20:40.597Z,73.68
2022-11-02T11:23:27.980Z,73.62
2022-11-02T11:26:28.933Z,73.60
2022-11-02T11:29:24.222Z,73.55
2022-11-02T11:32:18.308Z,73.51
2022-11-02T11:35:08.314Z,73.49
2022-11-02T11:38:01.703Z,73.14
2022-11-02T11:40:54.983Z,73.26
2022-11-02T11:43:42.702Z,73.18
2022-11-02T11:46:44.170Z,73.20
2022-11-02T11:49:55.025Z,73.28
2022-11-02T11:52:40.405Z,73.28
2022-11-02T11:55:29.190Z,73.16
2022-11-02T11:58:32.703Z,73.03
2022-11-02T12:01:20.329Z,73.16
2022-11-02T12:04:09.135Z,73.23
2022-11-02T12:07:05.791Z,72.93
2022-11-02T12:10:09.264Z,72.88
2022-11-02T12:13:07.824Z,72.87
2022-11-02T12:16:03.396Z,72.80
2022-11-02T12:18:50.376Z,72.73
2022-11-02T12:22:00.589Z,72.88
2022-11-02T12:25:12.201Z,72.82
2022-11-02T12:28:23.090Z,72.59
2022-11-02T12:31:51.117Z,72.54
2022-11-02T12:35:27.922Z,72.44
2022-11-02T12:38:43.766Z,72.32
2022-11-02T12:41:57.069Z,72.27
2022-11-02T12:44:43.784Z,72.12
2022-11-02T12:47:55.888Z,72.04
2022-11-02T12:50:53.180Z,71.91
2022-11-02T12:54:01.689Z,71.78
2022-11-02T12:56:56.026Z,71.86
2022-11-02T12:59:45.381Z,71.84
2022-11-02T13:02:42.225Z,71.94
2022-11-02T13:05:38.604Z,71.95
2022-11-02T13:08:41.007Z,71.92
2022-11-02T13:11:52.198Z,71.72
2022-11-02T13:14:52.207Z,71.65
2022-11-02T13:17:47.709Z,71.65
2022-11-02T13:20:50.288Z,71.68
2022-11-02T13:23:43.789Z,71.64
2022-11-02T13:26:39.426Z,71.66
2022-11-02T13:29:46.603Z,71.64
2022-11-02T13:32:39.234Z,71.72
2022-11-02T13:35:30.276Z,71.70
2022-11-02T13:38:41.618Z,71.66
2022-11-02T13:41:39.792Z,71.69
2022-11-02T13:45:02.703Z,71.62
2022-11-02T13:47:52.099Z,71.57
2022-11-02T13:50:47.279Z,71.45
2022-11-02T13:53:39.129Z,71.27
2022-11-02T13:56:30.200Z,71.33
2022-11-02T13:59:30.274Z,71.34
2022-11-02T14:02:20.887Z,71.32
2022-11-02T14:05:09.164Z,71.29
2022-11-02T14:08:02.473Z,71.12
2022-11-02T14:11:07.627Z,71.11
2022-11-02T14:13:59.212Z,71.08
2022-11-02T14:16:51.660Z,71.17
2022-11-02T14:19:44.668Z,71.25
2022-11-02T14:22:32.353Z,71.00
2022-11-02T14:25:19.120Z,71.10
2022-11-02T14:28:26.281Z,71.05
2022-11-02T14:31:18.207Z,71.12
2022-11-02T14:34:19.824Z,71.17
2022-11-02T14:37:21.414Z,71.12
2022-11-02T14:40:11.024Z,71.15
2022-11-02T14:43:17.815Z,71.19
2022-11-02T14:46:32.371Z,70.95
2022-11-02T14:49:23.885Z,71.02
2022-11-02T14:52:15.823Z,71.21
2022-11-02T14:55:10.025Z,71.10
2022-11-02T14:58:05.328Z,71.08
2022-11-02T15:00:59.067Z,71.06
2022-11-02T15:03:46.178Z,71.13
2022-11-02T15:06:32.392Z,71.04
2022-11-02T15:09:56.680Z,71.02
2022-11-02T15:12:44.686Z,70.95
2022-11-02T15:15:34.252Z,70.90
2022-11-02T15:18:37.451Z,70.92
2022-11-02T15:21:23.648Z,70.90
2022-11-02T15:24:17.047Z,70.89
2022-11-02T15:27:03.884Z,70.68
2022-11-02T15:29:52.505Z,71.05
2022-11-02T15:32:44.704Z,70.94
2022-11-02T15:35:35.281Z,70.84
2022-11-02T15:38:33.828Z,70.78
2022-11-02T15:41:50.889Z,70.87
2022-11-02T15:44:52.727Z,70.83
2022-11-02T15:47:53.847Z,70.56
2022-11-02T15:50:59.504Z,70.94
2022-11-02T15:54:07.133Z,70.98
2022-11-02T15:56:59.927Z,71.06
2022-11-02T16:00:14.315Z,70.96
2022-11-02T16:03:06.656Z,71.16
2022-11-02T16:05:53.648Z,71.29
2022-11-02T16:08:40.355Z,71.11
2022-11-02T16:11:27.866Z,71.18
2022-11-02T16:14:18.615Z,71.14
2022-11-02T16:17:05.289Z,70.95
2022-11-02T16:20:09.696Z,70.91
2022-11-02T16:23:02.697Z,70.98
2022-11-02T16:25:52.995Z,71.01
2022-11-02T16:28:40.068Z,71.06
2022-11-02T16:31:31.797Z,71.18
2022-11-02T16:34:30.496Z,71.10
2022-11-02T16:37:19.788Z,71.22
2022-11-02T16:40:07.702Z,71.06
2022-11-02T16:42:55.198Z,71.14
2022-11-02T16:45:44.013Z,71.13
2022-11-02T16:48:33.370Z,70.98
2022-11-02T16:51:20.196Z,71.01
2022-11-02T16:54:21.201Z,71.02
2022-11-02T16:57:21.038Z,71.20
2022-11-02T17:00:19.059Z,71.08
2022-11-02T17:03:11.003Z,71.04
2022-11-02T17:06:00.098Z,70.84
2022-11-02T17:08:54.384Z,70.93
2022-11-02T17:11:44.726Z,70.84
2022-11-02T17:14:32.035Z,70.87
2022-11-02T17:17:24.277Z,70.97
2022-11-02T17:20:16.141Z,70.95
2022-11-02T17:23:08.376Z,70.98
2022-11-02T17:26:23.630Z,70.88
2022-11-02T17:29:25.591Z,71.01
2022-11-02T17:32:16.665Z,71.01
2022-11-02T17:35:05.133Z,70.72
2022-11-02T17:37:53.567Z,71.05
2022-11-02T17:40:39.514Z,70.87
2022-11-02T17:43:25.542Z,70.91
2022-11-02T17:46:11.518Z,71.06
2022-11-02T17:48:58.081Z,71.12
2022-11-02T17:51:44.330Z,71.11
2022-11-02T17:54:30.156Z,71.04
2022-11-02T17:57:16.189Z,71.11
2022-11-02T18:00:02.527Z,71.04
2022-11-02T18:02:59.347Z,70.80
2022-11-02T18:05:49.526Z,71.15
2022-11-02T18:08:57.226Z,70.99
2022-11-02T18:11:43.196Z,71.14
2022-11-02T18:14:30.203Z,71.11
2022-11-02T18:17:15.841Z,70.94
2022-11-02T18:20:02.456Z,70.78
2022-11-02T18:22:48.556Z,70.72
2022-11-02T18:25:34.931Z,70.90
2022-11-02T18:28:21.097Z,71.00
2022-11-02T18:31:08.845Z,71.01
2022-11-02T18:33:56.893Z,71.00
2022-11-02T18:36:43.665Z,71.03
2022-11-02T18:39:30.076Z,71.12
2022-11-02T18:42:16.928Z,71.03
2022-11-02T18:45:04.039Z,70.99
2022-11-02T18:47:50.861Z,70.96
2022-11-02T18:50:37.323Z,70.85
2022-11-02T18:53:24.560Z,70.87
2022-11-02T18:56:12.084Z,70.87
2022-11-02T18:58:58.741Z,70.97
2022-11-02T19:01:44.937Z,70.88
2022-11-02T19:04:31.607Z,71.03
2022-11-02T19:07:36.953Z,70.94
2022-11-02T19:10:24.720Z,70.67
2022-11-02T19:13:10.918Z,70.74
2022-11-02T19:15:57.726Z,70.93
2022-11-02T19:18:44.513Z,70.98
2022-11-02T19:21:32.074Z,71.03
2022-11-02T19:24:18.149Z,70.68
2022-11-02T19:27:04.345Z,70.67
2022-11-02T19:29:51.854Z,70.60
2022-11-02T19:32:38.215Z,70.55
2022-11-02T19:35:24.524Z,70.60
2022-11-02T19:38:13.010Z,70.54
2022-11-02T19:41:10.236Z,70.56
2022-11-02T19:43:58.093Z,70.71
2022-11-02T19:46:45.218Z,70.66
2022-11-02T19:49:31.991Z,70.56
2022-11-02T19:52:18.772Z,70.64
2022-11-02T19:55:06.066Z,70.52
2022-11-02T19:57:52.357Z,70.63
2022-11-02T20:00:39.226Z,70.58
2022-11-02T20:03:26.041Z,70.63
2022-11-02T20:06:19.290Z,70.60
2022-11-02T20:09:08.048Z,70.70
2022-11-02T20:11:55.227Z,70.58
2022-11-02T20:14:41.462Z,70.58
2022-11-02T20:17:38.103Z,70.56
2022-11-02T20:20:33.122Z,70.57
2022-11-02T20:23:20.463Z,70.55
2022-11-02T20:26:09.965Z,70.53
2022-11-02T20:28:56.629Z,70.39
2022-11-02T20:31:42.700Z,70.38
2022-11-02T20:34:29.024Z,70.31
2022-11-02T20:37:15.037Z,70.42
2022-11-02T20:40:01.257Z,70.38
2022-11-02T20:42:49.802Z,70.31
2022-11-02T20:45:36.493Z,70.32
2022-11-02T20:51:13.951Z,70.31
2022-11-02T20:54:01.253Z,70.38
2022-11-02T20:56:48.079Z,70.46
2022-11-02T20:59:34.533Z,70.38
2022-11-02T21:02:22.600Z,70.56
2022-11-02T21:05:09.270Z,70.52
2022-11-02T21:07:55.216Z,70.65
2022-11-02T21:10:41.223Z,70.82
2022-11-02T21:13:47.006Z,70.59
2022-11-02T21:16:34.603Z,70.70
2022-11-02T21:19:20.927Z,70.88
2022-11-02T21:22:07.124Z,70.98
2022-11-02T21:24:53.403Z,70.97
2022-11-02T21:27:39.630Z,70.72
2022-11-02T21:30:26.808Z,70.83
2022-11-02T21:33:12.412Z,70.88
2022-11-02T21:35:59.619Z,70.81
2022-11-02T21:38:47.490Z,70.66
2022-11-02T21:41:38.846Z,70.48
2022-11-02T21:44:25.274Z,70.27
2022-11-02T21:47:12.848Z,70.42
2022-11-02T21:50:02.872Z,70.38
2022-11-02T21:52:49.130Z,70.29
2022-11-02T21:55:35.343Z,70.48
2022-11-02T21:58:21.917Z,70.38
2022-11-02T22:01:33.163Z,70.36
2022-11-02T22:04:51.188Z,70.35
2022-11-02T22:07:57.163Z,70.28
2022-11-02T22:10:43.155Z,70.45
2022-11-02T22:13:35.590Z,70.44
2022-11-02T22:16:25.457Z,70.46
2022-11-02T22:19:15.640Z,70.34
2022-11-02T22:22:02.675Z,70.36
2022-11-02T22:24:49.450Z,70.45
2022-11-02T22:27:35.585Z,70.40
2022-11-02T22:30:22.509Z,70.33
2022-11-02T22:33:11.730Z,70.52
2022-11-02T22:35:57.675Z,70.46
2022-11-02T22:38:58.219Z,70.24
2022-11-02T22:41:48.860Z,70.37
2022-11-02T22:44:34.952Z,70.44
2022-11-02T22:47:21.012Z,70.46
2022-11-02T22:50:08.190Z,70.43
2022-11-02T22:52:55.775Z,70.45
2022-11-02T22:55:42.677Z,70.53
2022-11-02T22:58:31.004Z,70.32
2022-11-02T23:01:20.271Z,70.05
2022-11-02T23:04:07.261Z,70.29
2022-11-02T23:06:53.300Z,70.40
2022-11-02T23:09:40.400Z,70.34
2022-11-02T23:12:26.192Z,70.39
2022-11-02T23:15:12.723Z,70.36
2022-11-02T23:17:59.546Z,70.34
2022-11-02T23:20:52.793Z,70.37
2022-11-02T23:23:57.785Z,70.43
2022-11-02T23:26:46.744Z,70.31
2022-11-02T23:29:52.760Z,70.19
2022-11-02T23:32:40.161Z,70.26
2022-11-02T23:35:45.191Z,70.28
2022-11-02T23:38:51.779Z,70.32
2022-11-02T23:41:39.381Z,70.23
2022-11-02T23:44:30.403Z,70.24
2022-11-02T23:47:17.846Z,70.17
2022-11-02T23:50:04.887Z,70.09
2022-11-02T23:53:10.467Z,70.37
2022-11-02T23:56:16.173Z,70.27
2022-11-02T23:59:09.619Z,70.37
